Time;durP1;ratioP1;P1;durP2;ratioP2;P2;SDS_P1;SDS_P2;PMS_P1;PMS_P2;Temp;Humidity;BMP_temperature;BMP_pressure;BME280_temperature;BME280_humidity;BME280_pressure;Samples;Min_cycle;Max_cycle;Signal;HPM_P1;HPM_P2
2021/04/22 00:02:10;;;;;;;21.90;3.90;;;8.80;65.90;;;;;;4993704;28;20428;-80
2021/04/22 00:04:36;;;;;;;17.03;2.97;;;8.70;66.00;;;;;;5011321;28;20430;-82
2021/04/22 00:07:02;;;;;;;16.63;3.03;;;8.70;66.30;;;;;;5011376;28;20414;-81
2021/04/22 00:09:28;;;;;;;19.30;3.20;;;8.80;66.60;;;;;;5010853;28;20097;-81
2021/04/22 00:11:54;;;;;;;18.23;2.80;;;8.70;66.20;;;;;;5011452;28;20038;-81
2021/04/22 00:14:19;;;;;;;14.57;2.97;;;8.70;66.30;;;;;;5010157;28;20022;-81
2021/04/22 00:16:45;;;;;;;12.47;2.27;;;8.70;66.70;;;;;;5011724;28;20026;-80
2021/04/22 00:19:11;;;;;;;17.50;2.90;;;8.70;67.00;;;;;;5012465;28;20117;-80
2021/04/22 00:21:37;;;;;;;18.53;2.60;;;8.60;67.20;;;;;;4997054;28;20100;-80
2021/04/22 00:24:03;;;;;;;16.37;2.50;;;8.60;67.30;;;;;;5015019;28;20037;-82
2021/04/22 00:26:29;;;;;;;15.90;2.90;;;8.60;67.50;;;;;;5014665;28;20142;-80
2021/04/22 00:28:54;;;;;;;18.30;2.90;;;8.50;67.90;;;;;;5014255;28;20112;-80
2021/04/22 00:31:20;;;;;;;12.37;2.70;;;8.50;67.90;;;;;;5013273;28;20029;-80
2021/04/22 00:33:46;;;;;;;21.90;2.70;;;8.60;67.50;;;;;;5014427;28;20144;-81
2021/04/22 00:36:13;;;;;;;21.77;2.70;;;8.60;67.50;;;;;;5014474;28;20034;-80
2021/04/22 00:38:39;;;;;;;21.33;3.33;;;8.50;68.10;;;;;;5014613;28;20022;-82
2021/04/22 00:41:05;;;;;;;16.80;2.53;;;8.50;68.40;;;;;;4996847;28;20028;-82
2021/04/22 00:43:30;;;;;;;16.77;2.67;;;8.70;68.10;;;;;;5015170;28;20371;-82
2021/04/22 00:45:56;;;;;;;18.47;2.50;;;8.60;68.10;;;;;;5015353;28;20058;-80
2021/04/22 00:48:24;;;;;;;16.43;2.33;;;8.50;68.40;;;;;;5014699;28;20395;-83
2021/04/22 00:50:50;;;;;;;16.27;2.60;;;8.40;68.90;;;;;;5014328;28;20051;-80
2021/04/22 00:53:17;;;;;;;18.50;2.40;;;8.30;69.00;;;;;;5014693;28;20108;-81
2021/04/22 00:55:42;;;;;;;19.27;2.60;;;8.20;69.50;;;;;;5014629;28;20030;-81
2021/04/22 00:58:09;;;;;;;11.37;2.20;;;8.30;69.60;;;;;;5013255;28;20493;-80
2021/04/22 01:00:39;;;;;;;17.03;2.70;;;8.30;70.10;;;;;;5014818;28;20029;-81
2021/04/22 01:03:06;;;;;;;15.23;2.70;;;8.20;70.10;;;;;;5014363;28;20485;-81
2021/04/22 01:05:42;;;;;;;15.50;3.30;;;8.30;69.70;;;;;;4996674;28;20026;-81
2021/04/22 01:08:07;;;;;;;13.43;2.87;;;8.20;70.20;;;;;;5014367;28;20114;-82
2021/04/22 01:10:33;;;;;;;13.40;2.50;;;8.30;70.10;;;;;;5013654;28;20110;-80
2021/04/22 01:12:58;;;;;;;22.93;3.27;;;8.30;69.30;;;;;;5014403;28;20104;-81
2021/04/22 01:15:26;;;;;;;17.33;3.90;;;8.20;69.70;;;;;;5014146;28;20455;-82
2021/04/22 01:17:52;;;;;;;17.77;3.43;;;8.30;69.50;;;;;;5014142;28;20144;-81
2021/04/22 01:20:23;;;;;;;16.47;2.60;;;8.20;69.80;;;;;;5014044;28;20109;-82
2021/04/22 01:22:53;;;;;;;24.87;3.50;;;8.10;70.40;;;;;;5014096;28;20022;-81
2021/04/22 01:25:23;;;;;;;;;;;8.30;70.00;;;;;;5013842;28;20096;-82
2021/04/22 01:27:49;;;;;;;16.17;2.70;;;8.30;69.50;;;;;;5013694;28;20261;-80
2021/04/22 01:30:23;;;;;;;17.70;3.07;;;8.20;70.20;;;;;;5012485;28;20034;-81
2021/04/22 01:32:49;;;;;;;17.10;4.20;;;8.20;70.20;;;;;;5013291;28;20026;-80
2021/04/22 01:35:19;;;;;;;23.03;3.20;;;8.10;70.40;;;;;;5013493;28;20081;-80
2021/04/22 01:37:45;;;;;;;17.63;2.47;;;8.10;70.80;;;;;;5013301;28;20105;-81
2021/04/22 01:40:13;;;;;;;26.27;3.13;;;8.10;70.70;;;;;;5013810;28;20112;-82
2021/04/22 01:42:39;;;;;;;18.90;2.90;;;8.10;70.80;;;;;;5014628;28;20338;-81
2021/04/22 01:45:06;;;;;;;22.10;3.07;;;8.10;70.20;;;;;;5015370;28;20363;-83
2021/04/22 01:47:32;;;;;;;13.90;3.00;;;8.10;70.70;;;;;;5015353;28;20034;-82
2021/04/22 01:50:01;;;;;;;18.03;3.67;;;8.20;70.20;;;;;;5014835;28;20029;-82
2021/04/22 01:52:27;;;;;;;17.40;2.95;;;8.00;70.60;;;;;;4997386;28;20021;-82
2021/04/22 01:54:53;;;;;;;15.57;2.53;;;7.90;71.10;;;;;;5015389;28;20091;-82
2021/04/22 01:57:18;;;;;;;20.93;3.53;;;8.00;71.10;;;;;;5015631;28;20102;-82
2021/04/22 01:59:44;;;;;;;20.40;3.07;;;7.90;71.60;;;;;;4997402;28;20046;-82
2021/04/22 02:02:10;;;;;;;16.73;3.03;;;7.80;71.60;;;;;;5015108;28;20050;-83
2021/04/22 02:04:36;;;;;;;21.17;3.60;;;7.90;71.40;;;;;;5014944;28;20080;-83
2021/04/22 02:07:03;;;;;;;22.57;2.97;;;7.70;71.80;;;;;;5015041;28;20510;-82
2021/04/22 02:09:28;;;;;;;19.93;2.77;;;7.90;71.80;;;;;;5013615;28;20028;-82
2021/04/22 02:11:54;;;;;;;24.47;4.30;;;7.90;71.70;;;;;;4995446;28;20061;-83
2021/04/22 02:14:20;;;;;;;21.50;3.20;;;7.90;71.80;;;;;;5014925;28;20073;-82
2021/04/22 02:16:45;;;;;;;14.70;3.50;;;7.70;72.50;;;;;;5015200;28;20022;-82
2021/04/22 02:19:13;;;;;;;14.63;2.70;;;7.70;72.60;;;;;;5014964;28;20018;-82
2021/04/22 02:21:38;;;;;;;23.87;3.17;;;7.70;72.70;;;;;;5020597;28;20045;-82
2021/04/22 02:24:05;;;;;;;16.20;3.40;;;7.80;72.20;;;;;;5017448;28;20014;-81
2021/04/22 02:26:30;;;;;;;20.33;3.50;;;7.80;72.90;;;;;;5012489;28;20066;-80
2021/04/22 02:28:56;;;;;;;20.73;3.10;;;7.80;72.60;;;;;;4994410;28;20131;-81
2021/04/22 02:31:22;;;;;;;17.67;3.00;;;7.80;72.60;;;;;;5012699;28;20068;-81
2021/04/22 02:33:52;;;;;;;18.53;2.93;;;7.70;72.70;;;;;;5013296;28;20029;-82
2021/04/22 02:36:18;;;;;;;17.67;3.40;;;7.70;72.70;;;;;;5013444;28;20029;-81
2021/04/22 02:38:44;;;;;;;22.40;3.23;;;7.70;73.10;;;;;;4995321;28;20119;-81
2021/04/22 02:41:10;;;;;;;13.27;2.90;;;7.60;74.10;;;;;;5012340;28;20062;-81
2021/04/22 02:43:35;;;;;;;16.53;3.83;;;7.60;72.90;;;;;;4994753;28;20054;-81
2021/04/22 02:46:01;;;;;;;24.70;4.13;;;7.70;73.00;;;;;;5013595;28;20026;-81
2021/04/22 02:48:27;;;;;;;20.43;3.27;;;7.70;72.80;;;;;;5011173;28;20030;-80
2021/04/22 02:50:55;;;;;;;17.87;3.00;;;7.60;73.30;;;;;;5012432;28;20033;-80
2021/04/22 02:53:22;;;;;;;17.03;3.00;;;7.50;73.10;;;;;;5012537;28;20033;-81
2021/04/22 02:55:48;;;;;;;14.97;3.10;;;7.50;73.30;;;;;;4995358;28;20069;-81
2021/04/22 02:58:15;;;;;;;18.07;3.80;;;7.40;73.90;;;;;;4995159;28;20022;-80
2021/04/22 03:00:43;;;;;;;16.83;3.20;;;7.40;74.30;;;;;;5012573;28;20037;-83
2021/04/22 03:03:09;;;;;;;23.37;3.50;;;7.50;74.00;;;;;;5008814;28;20053;-83
2021/04/22 03:05:36;;;;;;;16.20;3.93;;;7.40;74.30;;;;;;5013728;28;20024;-81
2021/04/22 03:08:04;;;;;;;16.60;3.10;;;7.40;74.20;;;;;;5013792;28;20634;-82
2021/04/22 03:10:30;;;;;;;22.83;3.83;;;7.40;74.20;;;;;;5013089;28;20057;-83
2021/04/22 03:12:56;;;;;;;18.27;3.63;;;7.40;74.30;;;;;;5013665;28;20049;-83
2021/04/22 03:15:23;;;;;;;19.40;3.63;;;7.40;74.20;;;;;;5013376;28;20422;-83
2021/04/22 03:17:49;;;;;;;23.43;4.07;;;7.40;74.20;;;;;;5013588;28;20026;-83
2021/04/22 03:20:16;;;;;;;22.20;3.73;;;7.30;74.20;;;;;;4995222;28;20026;-83
2021/04/22 03:22:42;;;;;;;18.43;3.50;;;7.30;74.40;;;;;;5014594;28;20022;-83
2021/04/22 03:25:10;;;;;;;23.73;3.57;;;7.30;75.00;;;;;;5013046;28;20030;-82
2021/04/22 03:27:35;;;;;;;18.40;3.13;;;7.10;77.30;;;;;;4997823;28;20041;-82
2021/04/22 03:30:03;;;;;;;18.10;3.43;;;7.00;79.10;;;;;;5014268;28;20029;-80
2021/04/22 03:32:29;;;;;;;18.23;3.47;;;7.10;77.10;;;;;;5014313;28;20089;-80
2021/04/22 03:34:55;;;;;;;21.90;3.80;;;6.90;77.60;;;;;;5015388;28;20036;-80
2021/04/22 03:37:21;;;;;;;17.80;2.90;;;6.90;79.00;;;;;;5015079;28;20391;-83
2021/04/22 03:39:46;;;;;;;22.40;3.97;;;7.00;76.60;;;;;;5014940;28;20340;-82
2021/04/22 03:42:12;;;;;;;20.73;3.40;;;6.80;77.00;;;;;;4997294;28;20112;-82
2021/04/22 03:44:38;;;;;;;23.87;3.73;;;6.80;76.90;;;;;;5015557;28;20054;-80
2021/04/22 03:47:03;;;;;;;20.67;3.97;;;6.80;77.70;;;;;;5012929;28;20064;-81
2021/04/22 03:49:29;;;;;;;18.07;3.43;;;6.80;76.90;;;;;;5012121;28;20029;-82
2021/04/22 03:51:55;;;;;;;26.40;4.27;;;6.80;77.10;;;;;;4995200;28;20026;-81
2021/04/22 03:54:20;;;;;;;17.03;3.33;;;6.90;77.60;;;;;;5015464;28;20022;-81
2021/04/22 03:56:46;;;;;;;21.67;3.43;;;6.70;77.30;;;;;;5020000;28;20029;-81
2021/04/22 03:59:12;;;;;;;19.70;3.80;;;6.60;78.00;;;;;;5025420;28;20052;-80
2021/04/22 04:01:38;;;;;;;15.77;3.70;;;6.40;78.50;;;;;;5017404;28;20033;-80
2021/04/22 04:04:04;;;;;;;18.53;4.00;;;6.30;78.80;;;;;;5017104;28;20025;-81
2021/04/22 04:06:31;;;;;;;20.60;4.10;;;6.20;80.40;;;;;;5016755;28;20026;-81
2021/04/22 04:08:57;;;;;;;22.30;4.60;;;6.20;80.10;;;;;;4998025;28;20125;-81
2021/04/22 04:11:23;;;;;;;20.93;3.60;;;6.10;81.00;;;;;;5016019;28;20034;-83
2021/04/22 04:13:48;;;;;;;23.83;4.90;;;6.00;81.80;;;;;;4998770;28;20140;-82
2021/04/22 04:16:14;;;;;;;18.27;3.43;;;5.90;83.10;;;;;;5017412;28;20105;-80
2021/04/22 04:18:40;;;;;;;20.40;4.27;;;6.00;82.00;;;;;;4998705;28;20018;-84
2021/04/22 04:21:05;;;;;;;19.43;3.80;;;6.00;82.60;;;;;;4997884;28;20340;-83
2021/04/22 04:23:31;;;;;;;21.03;4.83;;;6.00;82.30;;;;;;5016898;28;20022;-83
2021/04/22 04:25:57;;;;;;;22.03;4.07;;;6.30;81.50;;;;;;4998370;28;20042;-84
2021/04/22 04:28:22;;;;;;;20.13;4.13;;;6.30;81.20;;;;;;5015883;28;20029;-83
2021/04/22 04:30:48;;;;;;;20.33;4.83;;;6.20;82.30;;;;;;4998013;28;20479;-84
2021/04/22 04:33:14;;;;;;;19.50;5.03;;;6.20;81.80;;;;;;4998663;28;20022;-81
2021/04/22 04:35:39;;;;;;;23.20;3.87;;;6.10;82.00;;;;;;4999548;28;20030;-81
2021/04/22 04:38:06;;;;;;;20.03;3.97;;;6.00;82.20;;;;;;5017664;28;20106;-83
2021/04/22 04:40:32;;;;;;;21.13;4.17;;;5.90;82.60;;;;;;5016260;28;20079;-81
2021/04/22 04:42:58;;;;;;;21.50;3.50;;;5.90;83.10;;;;;;5016336;28;20033;-82
2021/04/22 04:45:24;;;;;;;22.87;4.27;;;5.90;82.70;;;;;;4998107;28;20051;-84
2021/04/22 04:47:49;;;;;;;15.00;3.80;;;6.10;82.40;;;;;;5017285;28;20024;-84
2021/04/22 04:50:16;;;;;;;20.27;4.60;;;6.40;82.60;;;;;;5016254;28;20037;-83
2021/04/22 04:52:42;;;;;;;23.27;4.43;;;6.40;81.40;;;;;;4997925;28;20102;-83
2021/04/22 04:55:09;;;;;;;30.97;4.83;;;6.60;80.40;;;;;;5016036;28;20528;-84
2021/04/22 04:57:34;;;;;;;29.03;4.80;;;6.70;80.30;;;;;;4996964;28;20029;-82
2021/04/22 05:00:00;;;;;;;29.00;4.60;;;6.70;79.70;;;;;;4996628;28;20018;-81
2021/04/22 05:02:26;;;;;;;18.10;4.73;;;6.70;79.20;;;;;;4996691;28;20037;-79
2021/04/22 05:04:51;;;;;;;22.53;4.67;;;6.80;79.20;;;;;;4997754;28;20037;-82
2021/04/22 05:07:17;;;;;;;24.13;5.27;;;6.90;78.70;;;;;;5018741;28;20121;-80
2021/04/22 05:09:43;;;;;;;29.53;5.07;;;6.90;78.40;;;;;;5014103;28;20026;-83
2021/04/22 05:12:09;;;;;;;29.30;5.47;;;7.00;78.70;;;;;;4997414;28;20065;-80
2021/04/22 05:14:34;;;;;;;20.20;4.23;;;7.00;78.00;;;;;;4998214;28;20034;-80
2021/04/22 05:17:00;;;;;;;30.30;5.33;;;7.00;78.10;;;;;;5015741;28;20030;-81
2021/04/22 05:19:26;;;;;;;25.47;5.17;;;7.10;78.50;;;;;;5014868;28;20026;-80
2021/04/22 05:21:53;;;;;;;21.27;4.70;;;7.20;77.50;;;;;;5015523;28;20022;-82
2021/04/22 05:24:19;;;;;;;24.57;4.70;;;7.20;77.30;;;;;;4997894;28;20075;-79
2021/04/22 05:26:45;;;;;;;23.73;5.07;;;7.40;77.70;;;;;;5016958;28;20026;-81
2021/04/22 05:29:11;;;;;;;24.97;5.10;;;7.40;76.90;;;;;;5015935;28;20057;-81
2021/04/22 05:31:36;;;;;;;23.13;5.00;;;7.30;77.10;;;;;;5016579;28;20122;-81
2021/04/22 05:34:02;;;;;;;23.93;5.60;;;7.50;76.60;;;;;;5016693;28;20053;-80
2021/04/22 05:36:28;;;;;;;28.27;5.60;;;7.50;77.00;;;;;;5017087;28;20450;-81
2021/04/22 05:38:54;;;;;;;27.83;4.90;;;7.50;76.60;;;;;;4997960;28;20029;-80
2021/04/22 05:41:19;;;;;;;26.87;5.50;;;7.50;76.90;;;;;;5016079;28;20093;-80
2021/04/22 05:43:45;;;;;;;20.77;4.27;;;7.50;76.90;;;;;;4997455;28;20033;-82
2021/04/22 05:46:11;;;;;;;24.17;4.40;;;7.60;76.10;;;;;;5017299;28;20068;-83
2021/04/22 05:48:36;;;;;;;26.17;4.80;;;7.60;75.50;;;;;;4999984;28;20049;-81
2021/04/22 05:51:02;;;;;;;25.33;4.87;;;7.60;75.90;;;;;;5017884;28;20033;-83
2021/04/22 05:53:28;;;;;;;29.73;5.23;;;7.70;75.80;;;;;;5019041;28;20037;-84
2021/04/22 05:55:53;;;;;;;24.53;4.40;;;7.70;75.20;;;;;;5003623;28;20045;-85
2021/04/22 05:58:19;;;;;;;20.33;4.80;;;7.50;75.20;;;;;;5020371;28;20108;-82
2021/04/22 06:00:45;;;;;;;23.37;4.43;;;7.60;75.40;;;;;;5019557;28;20033;-85
2021/04/22 06:03:11;;;;;;;22.87;3.83;;;7.70;75.10;;;;;;5019701;28;20471;-83
2021/04/22 06:05:40;;;;;;;23.33;4.30;;;7.60;74.50;;;;;;5019556;28;20050;-84
2021/04/22 06:08:05;;;;;;;26.33;4.15;;;7.70;74.60;;;;;;5004199;28;20044;-84
2021/04/22 06:10:31;;;;;;;20.77;4.50;;;7.60;74.60;;;;;;5005281;28;20098;-82
2021/04/22 06:12:57;;;;;;;18.97;4.53;;;7.60;74.90;;;;;;5017793;28;20463;-84
2021/04/22 06:15:22;;;;;;;16.33;3.67;;;7.70;74.80;;;;;;5017785;28;20081;-82
2021/04/22 06:17:49;;;;;;;22.47;4.60;;;7.70;74.80;;;;;;5015123;28;20495;-84
2021/04/22 06:20:16;;;;;;;22.43;4.50;;;7.70;75.50;;;;;;5015340;28;20510;-82
2021/04/22 06:22:42;;;;;;;21.47;4.10;;;7.70;75.70;;;;;;5015906;28;20026;-81
2021/04/22 06:25:09;;;;;;;34.33;4.50;;;7.70;77.10;;;;;;5018190;28;20029;-83
2021/04/22 06:27:34;;;;;;;20.40;4.20;;;7.70;78.60;;;;;;4999054;28;20052;-82
2021/04/22 06:30:00;;;;;;;21.10;5.67;;;7.50;77.20;;;;;;5014154;28;20523;-81
2021/04/22 06:32:26;;;;;;;21.63;5.40;;;7.40;76.90;;;;;;4998191;28;20131;-80
2021/04/22 06:34:52;;;;;;;28.90;9.90;;;7.50;76.70;;;;;;5015638;28;20391;-83
2021/04/22 06:37:18;;;;;;;27.93;8.57;;;7.40;76.90;;;;;;5012385;28;20025;-81
2021/04/22 06:39:43;;;;;;;32.13;9.60;;;7.50;76.70;;;;;;4993603;28;20022;-81
2021/04/22 06:42:09;;;;;;;34.90;12.43;;;7.60;76.00;;;;;;4993932;28;20022;-82
2021/04/22 06:44:36;;;;;;;32.70;9.40;;;7.80;76.20;;;;;;5012386;28;20056;-84
2021/04/22 06:47:02;;;;;;;29.70;7.83;;;7.90;75.20;;;;;;4995134;28;20092;-85
2021/04/22 06:49:28;;;;;;;35.47;11.63;;;7.90;74.80;;;;;;5013424;28;20045;-83
2021/04/22 06:51:54;;;;;;;26.23;8.77;;;7.90;73.60;;;;;;5014158;28;20047;-85
2021/04/22 06:54:20;;;;;;;33.00;11.00;;;8.00;73.70;;;;;;5013539;28;20080;-84
2021/04/22 06:56:46;;;;;;;32.03;10.60;;;8.00;73.40;;;;;;4995667;28;20075;-84
2021/04/22 06:59:12;;;;;;;39.47;9.63;;;8.00;72.30;;;;;;4994960;28;20041;-84
2021/04/22 07:01:38;;;;;;;26.87;7.13;;;8.10;71.90;;;;;;4995977;28;20393;-84
2021/04/22 07:04:04;;;;;;;28.33;7.00;;;7.80;72.40;;;;;;5012239;28;20022;-85
2021/04/22 07:06:30;;;;;;;25.47;7.47;;;7.80;72.10;;;;;;5012676;28;20029;-84
2021/04/22 07:08:56;;;;;;;22.53;7.10;;;7.90;72.70;;;;;;5011841;28;20033;-84
2021/04/22 07:11:22;;;;;;;28.80;6.77;;;7.90;71.20;;;;;;5013408;28;20399;-83
2021/04/22 07:13:47;;;;;;;19.50;5.77;;;7.90;70.60;;;;;;5013392;28;20030;-84
2021/04/22 07:16:14;;;;;;;27.63;7.00;;;7.80;71.50;;;;;;4995590;28;20038;-82
2021/04/22 07:18:40;;;;;;;24.93;6.53;;;7.90;71.10;;;;;;5014784;28;20026;-85
2021/04/22 07:21:06;;;;;;;18.93;5.30;;;8.00;71.10;;;;;;4995851;28;20140;-83
2021/04/22 07:23:31;;;;;;;20.23;4.70;;;7.80;70.40;;;;;;5013803;28;20105;-83
2021/04/22 07:25:57;;;;;;;16.50;3.70;;;7.70;70.20;;;;;;5013700;28;20029;-83
2021/04/22 07:28:23;;;;;;;19.83;4.10;;;7.90;70.30;;;;;;5013234;28;20029;-81
2021/04/22 07:30:49;;;;;;;22.00;3.60;;;8.00;75.20;;;;;;5012926;28;20057;-81
2021/04/22 07:33:15;;;;;;;12.00;2.80;;;8.20;72.80;;;;;;5013590;28;20479;-83
2021/04/22 07:35:41;;;;;;;14.03;2.50;;;8.20;72.40;;;;;;4995829;28;20030;-82
2021/04/22 07:38:09;;;;;;;13.73;3.47;;;8.20;70.60;;;;;;5007946;28;20033;-81
2021/04/22 07:40:35;;;;;;;13.60;2.90;;;8.30;70.70;;;;;;4993803;28;20028;-81
2021/04/22 07:43:01;;;;;;;14.70;2.73;;;8.40;69.60;;;;;;5011714;28;20109;-82
2021/04/22 07:45:34;;;;;;;13.63;3.13;;;8.30;69.30;;;;;;5012256;28;20061;-84
2021/04/22 07:48:00;;;;;;;11.00;2.77;;;8.30;70.00;;;;;;4994604;28;20034;-81
2021/04/22 07:50:26;;;;;;;14.60;2.57;;;8.40;68.90;;;;;;5011751;28;20030;-84
2021/04/22 07:52:52;;;;;;;13.87;2.70;;;8.40;68.20;;;;;;4990164;28;20030;-82
2021/04/22 07:55:21;;;;;;;13.17;2.63;;;8.50;68.60;;;;;;5013332;28;20103;-81
2021/04/22 07:57:49;;;;;;;15.32;2.28;;;8.50;67.60;;;;;;5012727;28;20536;-82
2021/04/22 08:00:18;;;;;;;14.30;3.30;;;8.30;67.60;;;;;;5002592;28;20052;-81
2021/04/22 08:02:44;;;;;;;9.85;1.92;;;8.20;67.70;;;;;;5032676;28;20100;-82
2021/04/22 08:05:11;;;;;;;13.80;2.77;;;8.30;66.30;;;;;;5032913;28;20085;-80
2021/04/22 08:07:37;;;;;;;15.40;3.20;;;8.10;67.00;;;;;;5030663;28;20048;-83
2021/04/22 08:10:23;;;;;;;13.20;2.27;;;8.30;66.80;;;;;;5031543;28;20034;-81
2021/04/22 08:12:50;;;;;;;12.40;2.30;;;8.30;66.90;;;;;;5014192;28;20373;-83
2021/04/22 08:15:16;;;;;;;17.30;2.80;;;8.20;66.80;;;;;;5012727;28;20105;-83
2021/04/22 08:17:44;;;;;;;10.23;2.50;;;8.30;67.20;;;;;;5030125;28;20148;-82
2021/04/22 08:20:13;;;;;;;10.43;2.60;;;8.20;67.00;;;;;;5011668;28;20026;-83
2021/04/22 08:22:39;;;;;;;11.27;2.20;;;8.30;67.30;;;;;;5031528;28;20108;-83
2021/04/22 08:25:12;;;;;;;11.73;2.53;;;8.40;68.50;;;;;;5031073;28;20057;-82
2021/04/22 08:27:37;;;;;;;14.00;2.50;;;8.50;66.70;;;;;;5029022;28;20441;-82
2021/04/22 08:30:07;;;;;;;12.03;2.20;;;8.30;66.40;;;;;;5010530;28;20034;-81
2021/04/22 08:32:33;;;;;;;13.90;2.73;;;8.40;67.00;;;;;;5011658;28;20036;-81
2021/04/22 08:34:59;;;;;;;10.60;2.77;;;8.50;66.00;;;;;;5029870;28;20037;-81
2021/04/22 08:37:24;;;;;;;13.23;2.30;;;8.50;66.10;;;;;;5029001;28;20025;-83
2021/04/22 08:39:50;;;;;;;10.67;1.90;;;8.30;65.30;;;;;;5011318;28;20390;-83
2021/04/22 08:42:16;;;;;;;15.77;2.53;;;8.40;65.50;;;;;;5016429;28;20034;-84
2021/04/22 08:44:44;;;;;;;8.40;2.03;;;8.30;64.90;;;;;;5003792;28;20034;-86
2021/04/22 08:47:10;;;;;;;12.30;2.88;;;8.30;64.80;;;;;;4997082;28;20032;-83
2021/04/22 08:49:36;;;;;;;14.30;2.90;;;8.30;64.60;;;;;;5013396;28;20390;-83
2021/04/22 08:52:04;;;;;;;13.37;2.10;;;8.40;65.10;;;;;;4995782;28;20030;-82
2021/04/22 08:54:29;;;;;;;14.90;2.97;;;8.30;65.70;;;;;;4995785;28;20025;-83
2021/04/22 08:56:55;;;;;;;13.17;2.53;;;8.40;65.00;;;;;;4995289;28;20037;-82
2021/04/22 08:59:22;;;;;;;13.90;2.57;;;8.30;64.60;;;;;;4994993;28;20439;-82
2021/04/22 09:01:47;;;;;;;15.80;3.87;;;8.40;65.30;;;;;;5013481;28;20137;-82
2021/04/22 09:04:13;;;;;;;10.10;2.53;;;8.50;65.00;;;;;;4995391;28;20089;-82
2021/04/22 09:06:40;;;;;;;9.10;3.13;;;8.60;64.70;;;;;;5013329;28;20109;-83
2021/04/22 09:09:08;;;;;;;9.73;2.43;;;8.60;66.00;;;;;;5011501;28;20037;-82
2021/04/22 09:11:43;;;;;;;12.67;2.33;;;8.70;65.90;;;;;;4995413;28;20034;-82
2021/04/22 09:14:14;;;;;;;16.73;4.80;;;8.80;65.10;;;;;;5013340;28;20414;-83
2021/04/22 09:16:41;;;;;;;14.83;2.97;;;8.80;65.40;;;;;;4995541;28;20478;-83
2021/04/22 09:19:13;;;;;;;12.63;2.97;;;8.80;65.30;;;;;;5013135;28;20387;-82
2021/04/22 09:21:43;;;;;;;16.70;3.17;;;8.90;64.90;;;;;;4995092;28;20049;-82
2021/04/22 09:24:13;;;;;;;11.03;2.63;;;9.00;64.10;;;;;;5014176;28;20033;-83
2021/04/22 09:26:50;;;;;;;12.43;2.97;;;9.00;64.40;;;;;;5013625;28;20453;-82
2021/04/22 09:29:43;;;;;;;14.07;2.93;;;9.10;63.00;;;;;;5013045;28;20037;-82
2021/04/22 09:32:11;;;;;;;15.10;3.20;;;9.10;63.90;;;;;;4982028;28;20030;-83
2021/04/22 09:34:37;;;;;;;10.60;2.63;;;9.20;62.70;;;;;;4994082;28;20036;-83
2021/04/22 09:37:03;;;;;;;11.00;3.00;;;9.20;63.00;;;;;;4976582;28;20026;-82
2021/04/22 09:39:31;;;;;;;11.30;2.83;;;9.20;63.10;;;;;;4993569;28;20027;-84
2021/04/22 09:42:07;;;;;;;10.53;2.90;;;9.20;62.60;;;;;;4976465;28;20491;-83
2021/04/22 09:44:32;;;;;;;10.93;2.60;;;9.30;62.70;;;;;;4994195;28;20214;-84
2021/04/22 09:47:15;;;;;;;10.77;2.73;;;9.40;62.50;;;;;;4993741;28;20618;-83
2021/04/22 09:49:52;;;;;;;11.10;2.83;;;9.40;62.10;;;;;;4989551;28;20032;-84
2021/04/22 09:52:19;;;;;;;14.17;3.00;;;9.50;61.50;;;;;;4996264;28;20087;-86
2021/04/22 09:54:49;;;;;;;12.67;2.60;;;9.40;61.00;;;;;;4997705;28;20106;-85
2021/04/22 09:57:22;;;;;;;10.37;2.60;;;9.50;62.30;;;;;;5015709;28;20362;-85
2021/04/22 09:59:49;;;;;;;9.30;2.60;;;9.60;62.20;;;;;;5013846;28;20026;-86
2021/04/22 10:02:15;;;;;;;10.00;2.70;;;9.70;61.50;;;;;;5012523;28;20497;-85
2021/04/22 10:04:46;;;;;;;10.67;2.70;;;9.80;61.60;;;;;;5014870;28;20053;-84
2021/04/22 10:07:21;;;;;;;10.47;2.43;;;9.80;61.70;;;;;;4995951;28;20030;-83
2021/04/22 10:10:12;;;;;;;9.70;2.63;;;9.90;61.50;;;;;;5014147;28;20084;-84
2021/04/22 10:12:38;;;;;;;9.07;2.53;;;9.90;61.40;;;;;;5001700;28;20045;-83
2021/04/22 10:15:23;;;;;;;11.87;3.00;;;9.70;61.20;;;;;;5020108;28;20053;-85
2021/04/22 10:17:53;;;;;;;8.37;2.30;;;9.70;60.70;;;;;;5022535;28;20187;-84
2021/04/22 10:20:20;;;;;;;13.57;3.17;;;9.80;61.40;;;;;;4997573;28;20025;-83
2021/04/22 10:22:47;;;;;;;11.70;2.67;;;9.80;60.40;;;;;;5014926;28;20026;-84
2021/04/22 10:25:17;;;;;;;14.07;3.13;;;9.90;60.90;;;;;;5016151;28;20057;-84
2021/04/22 10:27:43;;;;;;;13.87;3.60;;;9.90;60.90;;;;;;5016274;28;20029;-83
2021/04/22 10:30:16;;;;;;;17.83;3.03;;;9.90;61.50;;;;;;5016503;28;20144;-83
2021/04/22 10:32:43;;;;;;;11.73;2.57;;;9.90;61.20;;;;;;5036299;28;20022;-83
2021/04/22 10:35:11;;;;;;;11.27;3.73;;;9.80;61.10;;;;;;5017094;28;20021;-84
2021/04/22 10:37:42;;;;;;;17.47;4.70;;;9.80;60.50;;;;;;5023435;28;20081;-82
2021/04/22 10:40:14;;;;;;;15.20;4.20;;;9.70;60.80;;;;;;5015422;28;20506;-82
2021/04/22 10:42:40;;;;;;;13.87;3.20;;;9.80;62.20;;;;;;4985518;28;20022;-83
2021/04/22 10:45:13;;;;;;;18.83;3.33;;;9.90;61.00;;;;;;4998640;28;20018;-82
2021/04/22 10:47:38;;;;;;;14.80;3.50;;;9.80;61.50;;;;;;5015977;28;20033;-84
2021/04/22 10:50:11;;;;;;;12.20;3.50;;;9.80;61.90;;;;;;5014593;28;20339;-83
2021/04/22 10:52:41;;;;;;;14.10;3.40;;;9.90;61.60;;;;;;5001752;28;20053;-83
2021/04/22 10:55:16;;;;;;;11.33;3.43;;;9.90;61.40;;;;;;4994208;28;20128;-84
2021/04/22 10:57:42;;;;;;;12.10;3.13;;;9.70;61.90;;;;;;4994997;28;20026;-83
2021/04/22 11:00:12;;;;;;;15.63;3.27;;;9.70;60.20;;;;;;4976755;28;20022;-83
2021/04/22 11:02:51;;;;;;;8.63;2.87;;;9.80;60.50;;;;;;4977876;28;20029;-84
2021/04/22 11:05:30;;;;;;;12.27;3.00;;;9.80;59.80;;;;;;4996287;28;20046;-84
2021/04/22 11:08:05;;;;;;;13.47;3.40;;;10.00;60.00;;;;;;4979570;28;20035;-84
2021/04/22 11:10:45;;;;;;;16.17;3.70;;;10.00;60.00;;;;;;4975895;28;20069;-84
2021/04/22 11:13:27;;;;;;;13.20;3.97;;;10.00;61.30;;;;;;4977187;28;20046;-83
2021/04/22 11:15:53;;;;;;;16.53;4.53;;;10.00;61.40;;;;;;4993469;28;20050;-85
2021/04/22 11:18:19;;;;;;;15.50;3.57;;;10.00;61.10;;;;;;4974317;28;20045;-86
2021/04/22 11:20:46;;;;;;;17.37;3.70;;;10.10;61.70;;;;;;4975899;28;20475;-84
2021/04/22 11:23:19;;;;;;;15.10;4.07;;;10.20;61.40;;;;;;4976530;28;20029;-84
2021/04/22 11:25:51;;;;;;;19.80;3.90;;;10.10;61.20;;;;;;4995777;28;20025;-83
2021/04/22 11:28:29;;;;;;;11.93;3.83;;;10.20;61.00;;;;;;4997575;28;20038;-86
2021/04/22 11:31:07;;;;;;;13.43;3.37;;;10.50;77.30;;;;;;4976907;28;20400;-84
2021/04/22 11:33:34;;;;;;;15.10;3.72;;;10.40;66.60;;;;;;4982722;28;20117;-85
2021/04/22 11:36:10;;;;;;;18.43;3.20;;;10.20;65.90;;;;;;4987689;28;20029;-84
2021/04/22 11:38:36;;;;;;;11.30;3.20;;;10.20;63.30;;;;;;5034209;28;20116;-85
2021/04/22 11:41:06;;;;;;;13.27;3.00;;;10.10;64.00;;;;;;5031351;28;20514;-84
2021/04/22 11:43:32;;;;;;;11.87;3.50;;;10.20;63.80;;;;;;5020186;28;20026;-84
2021/04/22 11:45:59;;;;;;;16.53;3.57;;;10.20;67.50;;;;;;4991123;28;20084;-85
2021/04/22 11:48:37;;;;;;;11.77;3.20;;;10.20;65.80;;;;;;4991071;28;20046;-85
2021/04/22 11:51:04;;;;;;;19.73;4.87;;;10.20;66.60;;;;;;4975806;28;20045;-84
2021/04/22 11:53:35;;;;;;;10.67;3.47;;;10.20;68.80;;;;;;4993295;28;20036;-85
2021/04/22 11:56:11;;;;;;;19.13;3.53;;;10.20;65.40;;;;;;4986569;28;20030;-85
2021/04/22 11:58:40;;;;;;;15.30;4.20;;;10.20;65.30;;;;;;5011563;28;20053;-85
2021/04/22 12:01:08;;;;;;;12.80;4.00;;;10.30;67.60;;;;;;4992705;28;20037;-83
2021/04/22 12:03:42;;;;;;;16.10;3.97;;;10.30;66.50;;;;;;4993084;28;20432;-83
2021/04/22 12:06:10;;;;;;;13.43;3.43;;;10.30;72.80;;;;;;4993154;28;20056;-83
2021/04/22 12:08:39;;;;;;;15.13;3.30;;;10.20;73.60;;;;;;5011147;28;20030;-83
2021/04/22 12:11:06;;;;;;;14.10;4.28;;;10.10;68.00;;;;;;5011098;28;20068;-85
2021/04/22 12:13:34;;;;;;;15.40;4.10;;;10.30;67.80;;;;;;4993506;28;20133;-85
2021/04/22 12:16:01;;;;;;;12.93;3.70;;;10.30;72.40;;;;;;4996020;28;20515;-85
2021/04/22 12:18:30;;;;;;;19.37;4.70;;;10.20;78.10;;;;;;5014749;28;20475;-85
2021/04/22 12:21:09;;;;;;;18.10;3.20;;;10.20;66.50;;;;;;4996294;28;20022;-85
2021/04/22 12:23:39;;;;;;;10.05;2.85;;;10.30;68.80;;;;;;5014465;28;20022;-85
2021/04/22 12:26:40;;;;;;;9.23;3.27;;;10.30;71.60;;;;;;4996994;28;20030;-86
2021/04/22 12:29:09;;;;;;;10.77;3.20;;;10.40;70.00;;;;;;4899196;29;20079;-85
2021/04/22 12:31:43;;;;;;;10.13;3.50;;;10.50;68.30;;;;;;4979038;28;20030;-84
2021/04/22 12:34:12;;;;;;;13.67;4.00;;;10.50;72.30;;;;;;5013221;28;20036;-84
2021/04/22 12:36:41;;;;;;;;;;;10.50;65.30;;;;;;4997831;28;20561;-84
2021/04/22 12:39:07;;;;;;;12.43;3.80;;;10.50;67.20;;;;;;5004805;28;20714;-83
2021/04/22 12:41:33;;;;;;;12.90;3.77;;;10.40;70.10;;;;;;5001138;28;20026;-83
2021/04/22 12:43:59;;;;;;;13.23;4.40;;;10.50;68.90;;;;;;5001448;28;20081;-83
2021/04/22 12:46:27;;;;;;;14.67;4.00;;;10.40;68.40;;;;;;4999420;28;20030;-84
2021/04/22 12:48:55;;;;;;;10.93;3.30;;;10.40;79.80;;;;;;4996891;28;20087;-84